Terminal Aerodrome Forecast
Issued by NWS

Home | Current Version | Previous Version | Text Only | Print | Product List | Glossary On
Versions: 1 2 3 4 5 6 7 8 9 10 11 12 13 14 15 16 17 18 19 20 21 22 23 24
000
FTUS46 KSEW 291120
TAFSEA
TAF
KSEA 291120Z 2912/3018 20010KT P6SM VCSH SCT018 OVC040
      TEMPO 2912/2915 6SM BR OVC018
     FM291500 21007KT P6SM SCT025 OVC035
      TEMPO 2915/2918 OVC025
     FM291900 25007KT P6SM BKN035
     FM292100 33007KT P6SM SCT035 BKN050
     FM300600 04006KT P6SM SCT030 SCT050=

USA.gov is the U.S. government's official web portal to all federal, state and local government web resources and services.